Albion, Rhode Island
Current Conditions -  °F | °C
As of 10:15 AM on Tuesday 21 Oct 2014 (Local Time) from KSFZ Reporting Station
Scattered Clouds Scattered Clouds  
Wind Chill: 57°   Ceiling: Unl
Heat Index: 57°   Visibility: 9mi
Dew Point: 46°   Wind: 5mph
Humidity: 67%   Direction: 90°E
Pressure: 29.95"   Gusts: NA
Location:  41.95°N, 71.45°W
Report Text: KSFZ 211415Z 09004KT 9SM SCT011 SCT120 14/08 A2995 RMK AO1
Loading
Personal Weather Stations






























Interactive Weather Map New forecast layout! Learn more

10-Day Weather Forecast

Advertisements
Track Severe Weather on mobile